Time;durP1;ratioP1;P1;durP2;ratioP2;P2;SDS_P1;SDS_P2;PMS_P1;PMS_P2;Temp;Humidity;BMP_temperature;BMP_pressure;BME280_temperature;BME280_humidity;BME280_pressure;Samples;Min_cycle;Max_cycle;Signal;HPM_P1;HPM_P2
2023/03/06 00:00:35;;;;;;;1.42;0.50;;;1.90;99.90;;;;;;7412542;19;19930;-73
2023/03/06 00:03:22;;;;;;;0.68;0.50;;;2.90;99.90;;;;;;7414166;19;19918;-72
2023/03/06 00:05:54;;;;;;;0.65;0.40;;;2.90;99.90;;;;;;7411077;19;19915;-72
2023/03/06 00:08:23;;;;;;;1.05;0.50;;;2.40;99.90;;;;;;7412760;19;19982;-72
2023/03/06 00:10:52;;;;;;;1.02;0.47;;;1.70;99.90;;;;;;7403402;19;20494;-72
2023/03/06 00:13:21;;;;;;;2.33;0.60;;;3.20;99.90;;;;;;7406452;19;19926;-72
2023/03/06 00:15:51;;;;;;;0.75;0.38;;;2.50;99.90;;;;;;7405119;19;19918;-73
2023/03/06 00:18:22;;;;;;;0.77;0.40;;;1.80;99.90;;;;;;7404962;19;19910;-72
2023/03/06 00:20:51;;;;;;;2.70;0.50;;;1.80;99.90;;;;;;7405120;19;20385;-72
2023/03/06 00:23:20;;;;;;;0.93;0.30;;;2.60;99.90;;;;;;7404831;19;19914;-72
2023/03/06 00:25:49;;;;;;;0.20;0.20;;;1.80;99.90;;;;;;7402737;19;19915;-72
2023/03/06 00:28:18;;;;;;;0.55;0.30;;;2.50;99.90;;;;;;7406841;19;20637;-72
2023/03/06 00:30:47;;;;;;;1.25;0.25;;;2.80;99.90;;;;;;7404443;19;19926;-72
2023/03/06 00:33:17;;;;;;;0.65;0.30;;;2.10;99.90;;;;;;7407089;19;20273;-72
2023/03/06 00:35:49;;;;;;;0.63;0.30;;;1.60;99.90;;;;;;7408645;19;19922;-72
2023/03/06 00:38:18;;;;;;;0.90;0.20;;;2.90;99.90;;;;;;7404752;19;19918;-72
2023/03/06 00:40:47;;;;;;;0.60;0.20;;;1.60;99.90;;;;;;7404652;19;20269;-72
2023/03/06 00:43:16;;;;;;;1.10;0.22;;;2.10;99.90;;;;;;7405269;19;19923;-73
2023/03/06 00:45:46;;;;;;;0.30;0.20;;;2.60;99.90;;;;;;7402459;19;20562;-73
2023/03/06 00:48:15;;;;;;;0.35;0.32;;;1.70;99.90;;;;;;7408164;19;19922;-72
2023/03/06 00:50:44;;;;;;;1.55;0.30;;;1.40;99.90;;;;;;7404458;19;19921;-73
2023/03/06 00:53:15;;;;;;;0.80;0.50;;;1.40;99.90;;;;;;7405492;19;19922;-72
2023/03/06 00:55:46;;;;;;;3.30;0.57;;;2.30;99.90;;;;;;7403720;19;19918;-73
2023/03/06 00:58:15;;;;;;;0.60;0.30;;;;;;;;;;7406012;19;20013;-73
2023/03/06 01:00:44;;;;;;;1.33;0.85;;;1.00;99.90;;;;;;7405924;19;20002;-73
2023/03/06 01:03:14;;;;;;;1.20;0.40;;;1.10;99.90;;;;;;7404984;19;19935;-72
2023/03/06 01:05:43;;;;;;;0.43;0.30;;;1.40;99.90;;;;;;7404188;19;19919;-73
2023/03/06 01:08:23;;;;;;;1.02;0.30;;;2.30;99.90;;;;;;7406257;19;19922;-73
2023/03/06 01:10:53;;;;;;;1.05;0.25;;;;;;;;;;7403644;19;19922;-73
2023/03/06 01:13:22;;;;;;;0.40;0.40;;;1.10;99.90;;;;;;7402941;19;19919;-73
2023/03/06 01:15:51;;;;;;;0.57;0.43;;;1.00;99.90;;;;;;7405003;19;19922;-72
2023/03/06 01:18:20;;;;;;;0.32;0.30;;;1.00;99.90;;;;;;7403736;19;20001;-72
2023/03/06 01:20:50;;;;;;;1.33;0.40;;;1.10;99.90;;;;;;7402849;19;20553;-73
2023/03/06 01:23:19;;;;;;;0.47;0.30;;;1.20;99.90;;;;;;7403386;19;19925;-73
2023/03/06 01:25:50;;;;;;;0.40;0.30;;;2.60;99.90;;;;;;7401962;19;20408;-73
2023/03/06 01:28:19;;;;;;;0.28;0.28;;;1.20;99.90;;;;;;7402953;19;19938;-72
2023/03/06 01:30:48;;;;;;;1.10;0.40;;;2.40;99.90;;;;;;7403895;19;19942;-73
2023/03/06 01:33:18;;;;;;;1.25;0.43;;;2.40;99.90;;;;;;7405823;19;19942;-72
2023/03/06 01:35:46;;;;;;;2.00;0.32;;;2.60;99.90;;;;;;7403064;19;20356;-72
2023/03/06 01:38:16;;;;;;;0.75;0.35;;;1.30;99.90;;;;;;7406341;19;19961;-72
2023/03/06 01:40:45;;;;;;;1.13;0.68;;;2.60;99.90;;;;;;7402562;19;19915;-72
2023/03/06 01:43:28;;;;;;;0.38;0.30;;;1.40;99.90;;;;;;7403678;19;19929;-72
2023/03/06 01:46:31;;;;;;;0.52;0.30;;;1.20;99.90;;;;;;7401412;19;19931;-73
2023/03/06 01:49:04;;;;;;;0.20;0.20;;;2.50;99.90;;;;;;7401618;19;19938;-73
2023/03/06 01:51:37;;;;;;;0.20;0.20;;;2.30;99.90;;;;;;7404369;19;19925;-73
2023/03/06 01:54:10;;;;;;;0.20;0.10;;;1.10;99.90;;;;;;7407126;19;19949;-73
2023/03/06 01:56:41;;;;;;;1.17;0.30;;;2.20;99.90;;;;;;7402935;19;19914;-73
2023/03/06 01:59:13;;;;;;;0.88;0.30;;;1.90;99.90;;;;;;7402685;19;19911;-73
2023/03/06 02:01:43;;;;;;;0.68;0.50;;;2.20;99.90;;;;;;7405023;19;19926;-73
2023/03/06 02:04:12;;;;;;;0.88;0.63;;;1.90;99.90;;;;;;7405816;19;19923;-74
2023/03/06 02:06:44;;;;;;;0.50;0.32;;;1.60;99.90;;;;;;7400482;19;20288;-73
2023/03/06 02:09:15;;;;;;;1.25;0.68;;;2.40;99.90;;;;;;7401432;19;19927;-73
2023/03/06 02:11:45;;;;;;;2.25;0.88;;;1.90;99.90;;;;;;7402970;19;19922;-73
2023/03/06 02:14:18;;;;;;;0.50;0.50;;;2.00;99.90;;;;;;7401858;19;19922;-73
2023/03/06 02:16:47;;;;;;;0.50;0.50;;;2.00;99.90;;;;;;7405363;19;19918;-73
2023/03/06 02:19:33;;;;;;;0.70;0.47;;;1.10;99.90;;;;;;7402049;19;19918;-73
2023/03/06 02:22:02;;;;;;;0.73;0.43;;;2.40;99.90;;;;;;7402300;19;19986;-73
2023/03/06 02:24:40;;;;;;;0.63;0.35;;;1.20;99.90;;;;;;7405683;19;19915;-73
2023/03/06 02:27:13;;;;;;;0.98;0.35;;;2.20;99.90;;;;;;7400135;19;20007;-73
2023/03/06 02:29:43;;;;;;;0.20;0.20;;;1.90;99.90;;;;;;7400551;19;19982;-73
2023/03/06 02:32:12;;;;;;;0.30;0.20;;;2.40;99.90;;;;;;7401538;19;20027;-73
2023/03/06 02:34:53;;;;;;;0.40;0.30;;;1.10;99.90;;;;;;7401348;19;19919;-73
2023/03/06 02:37:24;;;;;;;0.30;0.22;;;1.10;99.90;;;;;;7401100;19;19914;-73
2023/03/06 02:40:11;;;;;;;0.30;0.20;;;1.80;99.90;;;;;;7403380;19;19919;-73
2023/03/06 02:42:47;;;;;;;0.43;0.20;;;2.50;99.90;;;;;;7400887;19;19918;-73
2023/03/06 02:45:19;;;;;;;0.28;0.28;;;1.00;99.90;;;;;;7402264;19;19998;-73
2023/03/06 02:47:48;;;;;;;0.35;0.20;;;2.10;99.90;;;;;;7404747;19;19926;-73
2023/03/06 02:50:17;;;;;;;0.50;0.30;;;1.90;99.90;;;;;;7403399;19;19922;-73
2023/03/06 02:52:46;;;;;;;0.30;0.20;;;;;;;;;;7400685;19;19934;-73
2023/03/06 02:55:15;;;;;;;0.28;0.10;;;;;;;;;;7400970;19;20002;-73
2023/03/06 02:57:47;;;;;;;0.70;0.30;;;1.80;99.90;;;;;;7400618;19;19919;-73
2023/03/06 03:00:17;;;;;;;0.77;0.20;;;1.80;99.90;;;;;;7402112;19;20280;-73
2023/03/06 03:02:47;;;;;;;0.40;0.30;;;1.30;99.90;;;;;;7400882;19;19918;-73
2023/03/06 03:05:17;;;;;;;1.58;0.30;;;2.20;99.90;;;;;;7400101;19;20309;-73
2023/03/06 03:07:47;;;;;;;0.20;0.20;;;1.00;99.90;;;;;;7400808;19;20603;-72
2023/03/06 03:10:16;;;;;;;0.20;0.20;;;1.10;99.90;;;;;;7401926;19;19918;-73
2023/03/06 03:12:47;;;;;;;0.20;0.10;;;2.40;99.90;;;;;;7400405;19;19938;-73
2023/03/06 03:15:16;;;;;;;0.10;0.10;;;1.20;99.90;;;;;;7401326;19;19914;-72
2023/03/06 03:17:45;;;;;;;1.95;0.20;;;1.30;99.90;;;;;;7400263;19;20341;-73
2023/03/06 03:20:17;;;;;;;0.22;0.22;;;2.60;99.90;;;;;;7403763;19;19925;-73
2023/03/06 03:22:50;;;;;;;0.20;0.20;;;1.70;99.90;;;;;;7401205;19;19915;-72
2023/03/06 03:25:19;;;;;;;0.40;0.10;;;2.60;99.90;;;;;;7401906;19;19942;-72
2023/03/06 03:27:51;;;;;;;0.30;0.30;;;1.40;99.90;;;;;;7400796;19;19930;-73
2023/03/06 03:30:20;;;;;;;0.57;0.30;;;2.40;99.90;;;;;;7402404;19;20337;-73
2023/03/06 03:32:52;;;;;;;0.20;0.20;;;1.20;99.90;;;;;;7399937;19;19926;-73
2023/03/06 03:35:22;;;;;;;0.25;0.25;;;2.00;99.90;;;;;;7399967;19;19923;-72
2023/03/06 03:37:51;;;;;;;0.22;0.20;;;2.20;99.90;;;;;;7400015;19;20354;-73
2023/03/06 03:40:21;;;;;;;0.40;0.20;;;;;;;;;;7399906;19;19929;-72
2023/03/06 03:42:52;;;;;;;0.93;0.40;;;2.40;99.90;;;;;;7399497;19;19914;-72
2023/03/06 03:45:21;;;;;;;1.58;0.40;;;2.00;99.90;;;;;;7404498;19;19921;-72
2023/03/06 03:47:59;;;;;;;1.33;0.40;;;2.30;99.90;;;;;;7408843;19;19927;-72
2023/03/06 03:50:30;;;;;;;0.45;0.32;;;2.50;99.90;;;;;;7406104;19;19946;-73
2023/03/06 03:52:59;;;;;;;0.30;0.20;;;1.70;99.90;;;;;;7406025;19;19978;-73
2023/03/06 03:55:28;;;;;;;2.10;0.50;;;0.90;99.90;;;;;;7405464;19;19941;-73
2023/03/06 03:57:59;;;;;;;1.48;0.50;;;2.00;99.90;;;;;;7405455;19;19923;-73
2023/03/06 04:00:28;;;;;;;0.80;0.30;;;1.90;99.90;;;;;;7405669;19;19923;-72
2023/03/06 04:02:58;;;;;;;0.40;0.40;;;1.10;99.90;;;;;;7407713;19;19922;-73
2023/03/06 04:05:26;;;;;;;1.60;0.50;;;1.10;99.90;;;;;;7409021;19;19919;-74
2023/03/06 04:07:56;;;;;;;0.50;0.35;;;1.40;99.90;;;;;;7406000;19;19935;-72
2023/03/06 04:10:25;;;;;;;0.60;0.55;;;1.70;99.90;;;;;;7404722;19;19942;-72
2023/03/06 04:12:54;;;;;;;0.60;0.50;;;1.50;99.90;;;;;;7406683;19;20613;-73
2023/03/06 04:15:25;;;;;;;0.40;0.38;;;0.60;99.90;;;;;;7407814;19;20356;-73
2023/03/06 04:17:54;;;;;;;0.50;0.25;;;0.80;99.90;;;;;;7405283;19;19914;-73
2023/03/06 04:20:24;;;;;;;0.32;0.30;;;;;;;;;;7405182;19;19915;-72
2023/03/06 04:22:54;;;;;;;0.38;0.30;;;1.90;99.90;;;;;;7409271;19;19986;-73
2023/03/06 04:25:23;;;;;;;0.30;0.20;;;2.20;99.90;;;;;;7404159;19;19942;-72
2023/03/06 04:27:53;;;;;;;0.90;0.50;;;2.20;99.90;;;;;;7407033;19;19936;-72
2023/03/06 04:30:25;;;;;;;0.43;0.32;;;1.50;99.90;;;;;;7404004;19;19911;-73
2023/03/06 04:32:54;;;;;;;0.60;0.40;;;2.10;99.90;;;;;;7408865;19;19922;-73
2023/03/06 04:35:24;;;;;;;1.85;0.40;;;0.90;99.90;;;;;;7404972;19;19925;-72
2023/03/06 04:37:53;;;;;;;1.10;0.45;;;2.00;99.90;;;;;;7407476;19;19919;-72
2023/03/06 04:40:26;;;;;;;0.52;0.40;;;0.70;99.90;;;;;;7407045;19;19978;-72
2023/03/06 04:42:55;;;;;;;0.63;0.52;;;1.50;99.90;;;;;;7404134;19;19942;-72
2023/03/06 04:45:27;;;;;;;0.60;0.40;;;2.10;99.90;;;;;;7406601;19;19923;-72
2023/03/06 04:47:57;;;;;;;2.67;0.40;;;2.10;99.90;;;;;;7405243;19;19940;-72
2023/03/06 04:50:31;;;;;;;1.05;0.55;;;2.00;99.90;;;;;;7404361;19;19918;-72
2023/03/06 04:53:04;;;;;;;1.05;0.50;;;0.70;99.90;;;;;;7404150;19;19942;-73
2023/03/06 04:55:33;;;;;;;0.75;0.40;;;0.80;99.90;;;;;;7405978;19;19918;-73
2023/03/06 04:58:13;;;;;;;1.08;0.38;;;1.70;99.90;;;;;;7404212;19;19923;-72
2023/03/06 05:00:45;;;;;;;1.23;0.57;;;1.50;99.90;;;;;;7404199;19;19934;-72
2023/03/06 05:03:15;;;;;;;0.40;0.40;;;1.30;99.90;;;;;;7407013;19;19925;-72
2023/03/06 05:05:45;;;;;;;0.82;0.55;;;1.40;99.90;;;;;;7403867;19;19947;-73
2023/03/06 05:08:15;;;;;;;1.42;0.60;;;1.50;99.90;;;;;;7407493;19;19926;-72
2023/03/06 05:10:45;;;;;;;1.00;0.50;;;1.80;99.90;;;;;;7406541;19;19922;-72
2023/03/06 05:13:15;;;;;;;0.63;0.40;;;1.80;99.90;;;;;;7404944;19;19915;-72
2023/03/06 05:15:46;;;;;;;0.77;0.40;;;1.40;99.90;;;;;;7403804;19;19914;-72
2023/03/06 05:18:15;;;;;;;1.00;0.60;;;1.50;99.90;;;;;;7404566;19;19926;-72
2023/03/06 05:20:45;;;;;;;1.08;0.40;;;2.10;99.90;;;;;;7404903;19;19923;-73
2023/03/06 05:23:15;;;;;;;1.30;0.40;;;0.60;99.90;;;;;;7406790;19;19919;-72
2023/03/06 05:25:44;;;;;;;2.15;0.47;;;0.90;99.90;;;;;;7405894;19;19930;-72
2023/03/06 05:28:13;;;;;;;0.32;0.32;;;1.80;99.90;;;;;;7402070;19;19926;-72
2023/03/06 05:30:42;;;;;;;0.55;0.40;;;0.80;99.90;;;;;;7406083;19;19970;-73
2023/03/06 05:33:13;;;;;;;0.88;0.20;;;1.90;99.90;;;;;;7403153;19;19918;-73
2023/03/06 05:35:47;;;;;;;1.17;0.30;;;0.70;99.90;;;;;;7404688;19;19922;-72
2023/03/06 05:38:21;;;;;;;0.95;0.60;;;1.20;99.90;;;;;;7403251;19;19923;-72
2023/03/06 05:40:50;;;;;;;0.90;0.52;;;0.80;99.90;;;;;;7405352;19;19938;-72
2023/03/06 05:43:19;;;;;;;1.10;0.70;;;1.80;99.90;;;;;;7403081;19;19954;-73
2023/03/06 05:45:49;;;;;;;2.80;0.50;;;1.70;99.90;;;;;;7406171;19;19922;-72
2023/03/06 05:48:20;;;;;;;1.25;0.50;;;2.20;99.90;;;;;;7401009;19;19927;-72
2023/03/06 05:50:57;;;;;;;1.08;0.68;;;0.60;99.90;;;;;;7404531;19;19950;-73
2023/03/06 05:53:28;;;;;;;0.75;0.68;;;0.70;99.90;;;;;;7406391;19;19911;-72
2023/03/06 05:56:00;;;;;;;2.85;0.80;;;1.40;99.90;;;;;;7402400;19;19921;-72
2023/03/06 05:58:30;;;;;;;2.65;0.80;;;1.50;99.90;;;;;;7402102;19;19989;-74
2023/03/06 06:00:59;;;;;;;2.03;0.70;;;0.50;99.90;;;;;;7401985;19;20351;-74
2023/03/06 06:03:38;;;;;;;1.98;0.80;;;0.50;99.90;;;;;;7403685;19;20632;-74
2023/03/06 06:06:08;;;;;;;2.13;0.87;;;1.20;99.90;;;;;;7403234;19;19915;-73
2023/03/06 06:08:37;;;;;;;2.30;1.13;;;0.70;99.90;;;;;;7400541;19;19970;-74
2023/03/06 06:11:07;;;;;;;2.55;1.15;;;2.00;99.90;;;;;;7403712;19;20348;-74
2023/03/06 06:13:37;;;;;;;1.92;1.02;;;0.60;99.90;;;;;;7402973;19;19919;-73
2023/03/06 06:16:10;;;;;;;1.63;1.05;;;1.30;99.90;;;;;;7403735;19;19963;-74
2023/03/06 06:18:41;;;;;;;4.40;1.50;;;0.80;99.90;;;;;;7401371;19;20332;-73
2023/03/06 06:21:12;;;;;;;2.10;1.00;;;1.60;99.90;;;;;;7403975;19;20390;-73
2023/03/06 06:23:41;;;;;;;2.90;1.10;;;;;;;;;;7400915;19;19922;-74
2023/03/06 06:26:11;;;;;;;1.45;0.90;;;1.70;99.90;;;;;;7401532;19;19932;-74
2023/03/06 06:28:40;;;;;;;2.35;1.15;;;1.60;99.90;;;;;;7400607;19;20648;-74
2023/03/06 06:31:11;;;;;;;3.50;1.13;;;2.50;99.90;;;;;;7401673;19;19934;-73
2023/03/06 06:33:43;;;;;;;1.75;1.00;;;1.70;99.90;;;;;;7402597;19;19915;-74
2023/03/06 06:36:20;;;;;;;2.83;1.08;;;1.80;99.90;;;;;;7401040;19;20002;-74
2023/03/06 06:38:50;;;;;;;3.67;1.30;;;2.00;99.90;;;;;;7404737;19;19918;-73
2023/03/06 06:41:19;;;;;;;2.08;1.20;;;0.70;99.90;;;;;;7400449;19;19925;-74
2023/03/06 06:43:48;;;;;;;3.10;1.10;;;0.50;99.90;;;;;;7405261;19;19950;-73
2023/03/06 06:46:17;;;;;;;1.40;0.88;;;1.20;99.90;;;;;;7400880;19;19926;-73
2023/03/06 06:48:51;;;;;;;1.27;1.02;;;1.00;99.90;;;;;;7402555;19;19923;-72
2023/03/06 06:51:20;;;;;;;2.30;1.00;;;0.40;99.90;;;;;;7405321;19;19919;-73
2023/03/06 06:53:49;;;;;;;2.83;1.60;;;1.80;99.90;;;;;;7400249;19;20031;-73
2023/03/06 06:56:18;;;;;;;2.88;1.05;;;1.80;99.90;;;;;;7402024;19;19990;-73
2023/03/06 06:58:47;;;;;;;2.80;1.10;;;0.30;99.90;;;;;;7403512;19;19940;-73
2023/03/06 07:01:16;;;;;;;2.38;1.30;;;0.80;99.90;;;;;;7401007;19;20013;-73
2023/03/06 07:03:47;;;;;;;4.40;1.45;;;0.70;99.90;;;;;;7403787;19;20360;-73
2023/03/06 07:06:17;;;;;;;1.83;1.38;;;1.70;99.90;;;;;;7401753;19;19925;-73
2023/03/06 07:08:45;;;;;;;3.45;1.45;;;0.60;99.90;;;;;;7401338;19;20357;-73
2023/03/06 07:11:17;;;;;;;2.92;1.70;;;1.20;99.90;;;;;;7401332;19;19919;-72
2023/03/06 07:13:46;;;;;;;2.65;1.10;;;1.10;99.90;;;;;;7398577;19;20446;-72
2023/03/06 07:16:16;;;;;;;3.00;1.50;;;0.50;99.90;;;;;;7402548;19;19914;-73
2023/03/06 07:18:48;;;;;;;1.95;1.40;;;0.50;99.90;;;;;;7402205;19;19990;-73
2023/03/06 07:21:19;;;;;;;3.90;1.88;;;0.60;99.90;;;;;;7409134;19;19931;-72
2023/03/06 07:23:53;;;;;;;6.57;2.15;;;0.50;99.90;;;;;;7407948;19;19927;-73
2023/03/06 07:26:22;;;;;;;5.00;2.17;;;0.60;99.90;;;;;;7409003;19;19930;-74
2023/03/06 07:28:51;;;;;;;4.90;2.20;;;0.40;99.90;;;;;;7403606;19;20260;-73
2023/03/06 07:31:22;;;;;;;5.05;2.50;;;0.90;99.90;;;;;;7406975;19;19938;-72
2023/03/06 07:33:55;;;;;;;4.88;2.70;;;1.70;99.90;;;;;;7403468;19;20007;-72
2023/03/06 07:36:26;;;;;;;6.53;2.97;;;0.50;99.90;;;;;;7408821;19;19919;-73
2023/03/06 07:38:55;;;;;;;4.22;2.22;;;0.80;99.90;;;;;;7407556;19;19946;-73
2023/03/06 07:41:24;;;;;;;6.22;2.65;;;1.20;99.90;;;;;;7408794;19;19919;-73
2023/03/06 07:43:53;;;;;;;7.00;2.88;;;1.90;99.90;;;;;;7408988;19;19924;-72
2023/03/06 07:46:22;;;;;;;7.97;2.60;;;1.20;99.90;;;;;;7409635;19;20379;-74
2023/03/06 07:48:53;;;;;;;5.05;2.70;;;0.70;99.90;;;;;;7402809;19;19942;-74
2023/03/06 07:51:23;;;;;;;5.47;2.47;;;0.50;99.90;;;;;;7405473;19;19922;-73
2023/03/06 07:53:52;;;;;;;5.57;2.50;;;1.70;99.90;;;;;;7408216;19;20213;-73
2023/03/06 07:56:26;;;;;;;3.28;2.30;;;0.90;99.90;;;;;;7408354;19;19922;-73
2023/03/06 07:58:55;;;;;;;7.32;2.15;;;0.70;99.90;;;;;;7405395;19;19934;-74
2023/03/06 08:01:25;;;;;;;3.47;2.00;;;0.70;99.90;;;;;;7405325;19;19946;-73
2023/03/06 08:04:00;;;;;;;3.83;2.17;;;1.70;99.90;;;;;;7407113;19;19918;-73
2023/03/06 08:06:29;;;;;;;3.35;2.08;;;0.60;99.90;;;;;;7408549;19;19989;-74
2023/03/06 08:09:05;;;;;;;3.72;1.73;;;0.60;99.90;;;;;;7402959;19;19918;-73
2023/03/06 08:11:47;;;;;;;7.07;2.17;;;1.60;99.90;;;;;;7404399;19;19915;-73
2023/03/06 08:14:16;;;;;;;6.07;1.58;;;0.40;99.90;;;;;;7404519;19;19982;-74
2023/03/06 08:16:45;;;;;;;9.63;2.47;;;1.80;99.90;;;;;;7407786;19;19974;-73
2023/03/06 08:19:21;;;;;;;3.42;1.70;;;1.00;99.90;;;;;;7407389;19;19918;-73
2023/03/06 08:21:50;;;;;;;2.97;1.60;;;1.10;99.90;;;;;;7406357;19;19927;-73
2023/03/06 08:24:19;;;;;;;3.78;1.42;;;1.50;99.90;;;;;;7404288;19;20366;-73
2023/03/06 08:26:48;;;;;;;2.83;1.55;;;0.90;99.90;;;;;;7407948;19;19923;-73
2023/03/06 08:29:17;;;;;;;1.85;1.35;;;0.60;99.90;;;;;;7407068;19;19934;-74
2023/03/06 08:31:49;;;;;;;4.13;1.67;;;1.50;99.90;;;;;;7403159;19;19994;-73
2023/03/06 08:34:23;;;;;;;3.25;1.40;;;2.10;99.90;;;;;;7402484;19;19926;-73
2023/03/06 08:36:52;;;;;;;2.20;1.15;;;0.80;99.90;;;;;;7407725;19;19998;-73
2023/03/06 08:39:22;;;;;;;2.30;1.15;;;1.60;99.90;;;;;;7408196;19;19922;-74
2023/03/06 08:41:51;;;;;;;1.50;0.85;;;2.30;99.90;;;;;;7407271;19;20238;-74
2023/03/06 08:44:20;;;;;;;1.20;1.05;;;1.20;99.90;;;;;;7405040;19;20333;-73
2023/03/06 08:46:49;;;;;;;2.72;1.13;;;1.30;99.90;;;;;;7408117;19;19994;-74
2023/03/06 08:49:38;;;;;;;2.95;1.35;;;1.00;99.90;;;;;;7407207;19;19925;-73
2023/03/06 08:52:08;;;;;;;2.13;1.00;;;1.20;99.90;;;;;;7405839;19;19990;-74
2023/03/06 08:54:38;;;;;;;2.53;1.20;;;2.00;99.90;;;;;;7404297;19;20336;-74
2023/03/06 08:57:08;;;;;;;6.18;1.42;;;3.00;99.90;;;;;;7407965;19;19922;-73
2023/03/06 08:59:37;;;;;;;1.45;0.88;;;2.60;99.90;;;;;;7407144;19;19925;-74
2023/03/06 09:02:06;;;;;;;2.17;1.02;;;1.20;99.90;;;;;;7405933;19;20272;-74
2023/03/06 09:04:37;;;;;;;2.05;1.25;;;2.70;99.90;;;;;;7403492;19;19918;-74
2023/03/06 09:07:06;;;;;;;2.08;1.30;;;2.10;99.90;;;;;;7407806;19;19939;-73
2023/03/06 09:09:35;;;;;;;1.27;0.90;;;2.20;99.90;;;;;;7403574;19;19923;-74
2023/03/06 09:12:04;;;;;;;2.47;1.40;;;1.70;99.90;;;;;;7405280;19;19922;-74
2023/03/06 09:14:46;;;;;;;2.65;1.13;;;3.10;99.90;;;;;;7402981;19;19925;-74
2023/03/06 09:17:15;;;;;;;2.33;0.90;;;2.70;99.90;;;;;;7405771;19;19919;-74
2023/03/06 09:19:47;;;;;;;2.60;1.33;;;1.80;99.90;;;;;;7402745;19;20665;-74
2023/03/06 09:22:16;;;;;;;4.25;0.98;;;1.70;99.90;;;;;;7405034;19;19922;-72
2023/03/06 09:24:45;;;;;;;3.03;1.40;;;3.10;99.90;;;;;;7404878;19;19967;-74
2023/03/06 09:27:14;;;;;;;2.60;1.35;;;3.10;99.90;;;;;;7405749;19;19923;-74
2023/03/06 09:29:43;;;;;;;2.15;0.90;;;3.30;99.90;;;;;;7406366;19;19922;-74
2023/03/06 09:32:12;;;;;;;1.90;0.80;;;3.60;99.90;;;;;;7406356;19;19918;-74
2023/03/06 09:34:41;;;;;;;3.03;1.23;;;2.30;99.90;;;;;;7407218;19;20275;-74
2023/03/06 09:37:13;;;;;;;3.33;1.25;;;2.30;99.90;;;;;;7405364;19;20633;-74
2023/03/06 09:39:42;;;;;;;3.88;1.20;;;2.60;99.90;;;;;;7402506;19;19930;-74
2023/03/06 09:42:17;;;;;;;2.15;1.02;;;2.50;99.90;;;;;;7402088;19;19914;-74
2023/03/06 09:44:51;;;;;;;2.17;1.00;;;3.30;99.90;;;;;;7399217;19;19922;-74
2023/03/06 09:47:42;;;;;;;3.03;1.00;;;2.40;99.90;;;;;;7405342;19;21607;-75
2023/03/06 09:50:36;;;;;;;2.17;0.80;;;3.50;99.90;;;;;;7407018;19;19927;-74
2023/03/06 09:53:47;;;;;;;4.15;0.80;;;3.30;99.90;;;;;;7401895;19;20470;-74
2023/03/06 09:56:20;;;;;;;3.17;0.85;;;3.40;99.90;;;;;;7402875;19;19927;-74
2023/03/06 09:58:55;;;;;;;3.92;0.90;;;4.40;99.90;;;;;;7402024;19;20253;-75
2023/03/06 10:01:27;;;;;;;4.93;0.90;;;3.70;99.90;;;;;;7404331;19;19914;-75
2023/03/06 10:04:13;;;;;;;1.05;0.60;;;3.10;99.90;;;;;;7401821;19;20256;-75
2023/03/06 10:06:50;;;;;;;1.65;0.70;;;3.30;99.90;;;;;;7403498;19;19922;-74
2023/03/06 10:09:26;;;;;;;2.20;0.65;;;4.00;99.90;;;;;;7400661;19;19922;-75
2023/03/06 10:11:58;;;;;;;2.33;0.75;;;3.20;99.90;;;;;;7402035;19;20294;-75
2023/03/06 10:14:36;;;;;;;1.08;0.47;;;3.50;99.90;;;;;;7400953;19;19939;-74
2023/03/06 10:17:06;;;;;;;3.15;0.73;;;4.50;99.90;;;;;;7402458;19;20396;-74
2023/03/06 10:19:38;;;;;;;1.35;0.70;;;3.20;99.90;;;;;;7401573;19;20337;-74
2023/03/06 10:22:14;;;;;;;;;;;4.00;99.90;;;;;;7406583;19;19929;-73
2023/03/06 10:24:51;;;;;;;1.33;0.70;;;3.30;99.90;;;;;;7405228;19;19922;-74
2023/03/06 10:27:30;;;;;;;3.10;0.65;;;4.40;99.90;;;;;;7402201;19;19922;-74
2023/03/06 10:30:07;;;;;;;2.10;0.50;;;3.80;99.90;;;;;;7401257;19;19926;-74
2023/03/06 10:32:47;;;;;;;1.60;0.63;;;4.10;99.90;;;;;;7403545;19;20003;-74
2023/03/06 10:35:20;;;;;;;2.40;1.60;;;3.10;99.90;;;;;;7401154;19;19942;-73
2023/03/06 10:38:06;;;;;;;0.85;0.45;;;3.50;99.90;;;;;;7404643;19;19974;-73
2023/03/06 10:40:52;;;;;;;3.53;0.50;;;4.00;99.90;;;;;;7403711;19;19946;-73
2023/03/06 10:43:21;;;;;;;5.18;1.67;;;3.10;99.90;;;;;;7400720;19;19919;-75
2023/03/06 10:45:52;;;;;;;3.10;0.85;;;4.10;99.90;;;;;;7401392;19;19918;-74
2023/03/06 10:48:24;;;;;;;1.35;0.50;;;4.20;99.90;;;;;;7404608;19;19919;-74
2023/03/06 10:50:53;;;;;;;0.55;0.38;;;4.20;99.90;;;;;;7400443;19;19915;-75
2023/03/06 10:53:25;;;;;;;0.73;0.13;;;4.10;99.90;;;;;;7402416;19;20374;-75
2023/03/06 10:55:59;;;;;;;13.43;5.35;;;4.40;99.90;;;;;;7403426;19;20458;-78
2023/03/06 10:58:30;;;;;;;0.95;0.20;;;4.30;99.90;;;;;;7400338;19;20261;-77
2023/03/06 11:01:06;;;;;;;3.47;1.98;;;4.40;99.90;;;;;;7400884;19;19914;-74
2023/03/06 11:03:35;;;;;;;6.22;2.63;;;5.80;99.90;;;;;;7400638;19;19927;-79
2023/03/06 11:06:08;;;;;;;0.52;0.20;;;4.60;99.90;;;;;;7400112;19;19923;-75
2023/03/06 11:08:41;;;;;;;1.30;0.40;;;4.50;99.90;;;;;;7403679;19;19934;-73
2023/03/06 11:11:14;;;;;;;1.23;0.30;;;4.50;99.90;;;;;;7404570;19;19967;-70
2023/03/06 11:13:45;;;;;;;7.50;2.08;;;4.60;99.90;;;;;;7403518;19;20010;-73
2023/03/06 11:16:22;;;;;;;2.03;0.25;;;4.80;99.90;;;;;;7402124;19;19922;-73
2023/03/06 11:18:59;;;;;;;1.88;0.20;;;4.70;99.90;;;;;;7399770;19;19918;-72
2023/03/06 11:21:39;;;;;;;1.20;0.35;;;4.80;99.90;;;;;;7400557;19;19919;-72
2023/03/06 11:24:16;;;;;;;1.45;0.30;;;6.10;99.90;;;;;;7397581;19;20479;-76
2023/03/06 11:26:55;;;;;;;1.38;0.40;;;5.20;99.90;;;;;;7401026;19;19914;-77
2023/03/06 11:29:41;;;;;;;2.42;1.27;;;5.10;99.90;;;;;;7402592;19;19918;-77
2023/03/06 11:32:18;;;;;;;0.20;0.15;;;5.20;99.90;;;;;;7403744;19;20328;-76
2023/03/06 11:35:01;;;;;;;0.52;0.25;;;5.30;99.90;;;;;;7399151;19;19918;-74
2023/03/06 11:37:42;;;;;;;0.75;0.30;;;5.40;99.90;;;;;;7402037;19;19921;-75
2023/03/06 11:40:19;;;;;;;0.63;0.20;;;5.40;99.90;;;;;;7399295;19;19918;-75
2023/03/06 11:43:22;;;;;;;3.17;0.40;;;5.30;99.90;;;;;;7398861;19;19974;-76
2023/03/06 11:45:59;;;;;;;0.88;0.40;;;5.40;99.90;;;;;;7399036;19;19914;-75
2023/03/06 11:48:34;;;;;;;0.35;0.30;;;6.00;99.90;;;;;;7402105;19;19943;-73
2023/03/06 11:51:10;;;;;;;1.35;0.52;;;5.40;99.90;;;;;;7398919;19;19929;-75
2023/03/06 11:53:41;;;;;;;1.50;0.30;;;5.10;99.90;;;;;;7401478;19;19929;-74
2023/03/06 11:56:27;;;;;;;2.55;0.28;;;5.10;99.90;;;;;;7398945;19;19985;-74
2023/03/06 11:59:33;;;;;;;1.08;0.20;;;5.20;99.90;;;;;;7398807;19;19922;-73
2023/03/06 12:02:16;;;;;;;0.20;0.20;;;5.90;99.90;;;;;;7397951;19;19926;-74
2023/03/06 12:04:53;;;;;;;2.35;0.45;;;5.70;99.90;;;;;;7398635;19;19915;-74
2023/03/06 12:07:30;;;;;;;1.83;0.73;;;6.00;99.90;;;;;;7406529;19;19929;-74
2023/03/06 12:10:22;;;;;;;2.63;0.30;;;6.00;99.90;;;;;;7403270;19;19937;-74
2023/03/06 12:13:23;;;;;;;1.98;0.60;;;6.00;99.90;;;;;;7407429;19;19941;-73
2023/03/06 12:16:19;;;;;;;1.75;0.52;;;7.00;99.90;;;;;;7405732;19;20285;-74
2023/03/06 12:18:59;;;;;;;0.63;0.22;;;6.10;99.90;;;;;;7410148;19;19938;-73
2023/03/06 12:21:45;;;;;;;0.95;0.20;;;6.20;99.90;;;;;;7407543;19;19918;-74
2023/03/06 12:24:29;;;;;;;4.32;0.30;;;6.20;99.90;;;;;;7405172;19;19942;-73
2023/03/06 12:27:14;;;;;;;0.68;0.25;;;6.60;99.90;;;;;;7404839;19;20002;-74
2023/03/06 12:29:55;;;;;;;2.28;0.57;;;6.30;99.90;;;;;;7403094;19;19918;-73
2023/03/06 12:32:42;;;;;;;0.30;0.30;;;6.60;99.90;;;;;;7407002;19;19930;-76
2023/03/06 12:35:28;;;;;;;0.80;0.30;;;6.80;99.90;;;;;;7404715;19;19921;-75
2023/03/06 12:38:07;;;;;;;1.27;0.20;;;6.10;99.90;;;;;;7408159;19;19930;-75
2023/03/06 12:41:09;;;;;;;1.23;0.30;;;6.50;99.90;;;;;;7405687;19;19966;-75
2023/03/06 12:43:59;;;;;;;2.28;0.50;;;6.00;99.90;;;;;;7402893;19;19929;-75
2023/03/06 12:46:51;;;;;;;3.92;0.68;;;6.00;99.90;;;;;;7404781;19;19918;-76
2023/03/06 12:49:28;;;;;;;1.02;0.20;;;5.80;99.90;;;;;;7403712;19;19992;-75
2023/03/06 12:51:58;;;;;;;1.30;0.30;;;5.70;99.90;;;;;;7405424;19;20070;-75
2023/03/06 12:54:42;;;;;;;2.33;0.38;;;7.30;99.90;;;;;;7406736;19;20356;-75
2023/03/06 12:57:11;;;;;;;3.85;0.57;;;6.50;99.90;;;;;;7404606;19;19920;-76
2023/03/06 12:59:46;;;;;;;2.38;0.30;;;5.70;99.90;;;;;;7404126;19;20314;-76
2023/03/06 13:02:51;;;;;;;1.75;0.30;;;5.80;99.90;;;;;;7405882;19;19926;-75
2023/03/06 13:05:47;;;;;;;1.08;0.15;;;5.70;99.90;;;;;;7402870;19;19934;-75
2023/03/06 13:08:58;;;;;;;4.03;0.45;;;5.70;99.90;;;;;;7406086;19;19922;-75
2023/03/06 13:11:56;;;;;;;3.17;0.70;;;5.80;99.90;;;;;;7406420;19;19911;-75
2023/03/06 13:14:27;;;;;;;0.80;0.30;;;5.70;99.90;;;;;;7402226;19;20232;-75
2023/03/06 13:16:56;;;;;;;2.10;0.50;;;7.20;99.90;;;;;;7402545;19;19910;-75
2023/03/06 13:19:26;;;;;;;0.90;0.30;;;6.90;99.90;;;;;;7404007;19;19914;-75
2023/03/06 13:22:04;;;;;;;1.15;0.30;;;5.80;99.90;;;;;;7405253;19;19918;-76
2023/03/06 13:24:35;;;;;;;;;;;5.70;99.90;;;;;;7407215;19;19956;-75
2023/03/06 13:27:10;;;;;;;1.85;0.40;;;5.80;99.90;;;;;;7403446;19;19919;-76
2023/03/06 13:30:05;;;;;;;0.93;0.30;;;6.00;99.90;;;;;;7402582;19;19910;-75
2023/03/06 13:32:36;;;;;;;0.60;0.22;;;5.80;99.90;;;;;;7404606;19;20463;-75